createdAt,value
2023-03-28T00:01:34.802Z,63.64
2023-03-28T00:04:07.271Z,63.73
2023-03-28T00:06:41.806Z,63.84
2023-03-28T00:09:14.481Z,63.93
2023-03-28T00:11:47.187Z,63.77
2023-03-28T00:14:19.357Z,63.67
2023-03-28T00:16:52.325Z,63.68
2023-03-28T00:19:24.418Z,63.72
2023-03-28T00:21:57.618Z,63.70
2023-03-28T00:24:30.061Z,63.61
2023-03-28T00:27:02.290Z,63.60
2023-03-28T00:29:34.885Z,63.78
2023-03-28T00:32:07.841Z,63.77
2023-03-28T00:34:40.257Z,63.71
2023-03-28T00:37:17.409Z,63.66
2023-03-28T00:39:51.092Z,63.57
2023-03-28T00:42:25.389Z,63.69
2023-03-28T00:44:59.579Z,63.40
2023-03-28T00:47:45.112Z,63.37
2023-03-28T00:50:21.338Z,63.50
2023-03-28T00:52:59.227Z,63.54
2023-03-28T00:55:37.861Z,63.60
2023-03-28T00:58:12.487Z,63.94
2023-03-28T01:00:46.987Z,63.95
2023-03-28T01:03:22.784Z,64.02
2023-03-28T01:05:56.867Z,63.78
2023-03-28T01:08:39.530Z,63.94
2023-03-28T01:11:13.276Z,63.78
2023-03-28T01:13:49.109Z,63.97
2023-03-28T01:16:23.360Z,63.81
2023-03-28T01:19:02.186Z,64.11
2023-03-28T01:22:17.176Z,63.95
2023-03-28T01:25:31.076Z,63.82
2023-03-28T01:28:09.130Z,63.89
2023-03-28T01:31:05.745Z,63.85
2023-03-28T01:34:19.633Z,63.82
2023-03-28T01:37:06.104Z,63.76
2023-03-28T01:39:58.796Z,63.91
2023-03-28T01:42:42.818Z,63.71
2023-03-28T01:45:20.311Z,63.75
2023-03-28T01:47:59.464Z,63.78
2023-03-28T01:50:37.074Z,63.70
2023-03-28T01:53:18.510Z,63.72
2023-03-28T01:55:55.438Z,63.51
2023-03-28T01:58:32.727Z,63.55
2023-03-28T02:01:16.816Z,63.38
2023-03-28T02:03:52.953Z,63.62
2023-03-28T02:06:39.890Z,63.65
2023-03-28T02:09:19.873Z,63.56
2023-03-28T02:12:17.033Z,63.87
2023-03-28T02:15:18.588Z,63.78
2023-03-28T02:18:16.803Z,63.80
2023-03-28T02:21:16.328Z,63.82
2023-03-28T02:23:57.452Z,63.90
2023-03-28T02:26:48.605Z,63.88
2023-03-28T02:29:33.185Z,63.96
2023-03-28T02:32:36.469Z,63.92
2023-03-28T02:35:10.103Z,63.59
2023-03-28T02:37:54.890Z,63.64
2023-03-28T02:40:42.346Z,63.40
2023-03-28T02:43:43.671Z,63.68
2023-03-28T02:46:29.575Z,63.56
2023-03-28T02:49:24.230Z,63.60
2023-03-28T02:52:09.387Z,63.63
2023-03-28T02:54:44.321Z,63.47
2023-03-28T02:57:42.897Z,63.51
2023-03-28T03:00:19.874Z,63.55
2023-03-28T03:02:54.206Z,63.67
2023-03-28T03:05:26.536Z,63.57
2023-03-28T03:07:58.893Z,63.63
2023-03-28T03:10:31.193Z,63.59
2023-03-28T03:13:03.345Z,63.52
2023-03-28T03:15:35.869Z,63.26
2023-03-28T03:18:23.368Z,63.43
2023-03-28T03:20:55.941Z,63.63
2023-03-28T03:23:28.087Z,63.70
2023-03-28T03:26:04.084Z,63.80
2023-03-28T03:28:46.400Z,63.79
2023-03-28T03:31:19.802Z,63.90
2023-03-28T03:34:03.726Z,63.95
2023-03-28T03:36:40.624Z,64.13
2023-03-28T03:39:12.910Z,63.99
2023-03-28T03:41:45.051Z,63.97
2023-03-28T03:44:17.207Z,64.21
2023-03-28T03:46:49.408Z,64.05
2023-03-28T03:49:21.547Z,64.30
2023-03-28T03:51:53.798Z,64.32
2023-03-28T03:54:26.218Z,64.30
2023-03-28T03:56:58.438Z,64.24
2023-03-28T03:59:30.935Z,64.24
2023-03-28T04:02:03.643Z,64.20
2023-03-28T04:04:49.089Z,64.08
2023-03-28T04:07:29.971Z,64.13
2023-03-28T04:10:02.132Z,64.21
2023-03-28T04:12:40.477Z,64.07
2023-03-28T04:15:13.523Z,64.31
2023-03-28T04:17:45.661Z,64.48
2023-03-28T04:20:19.984Z,64.61
2023-03-28T04:23:10.593Z,64.57
2023-03-28T04:25:43.696Z,64.68
2023-03-28T04:28:19.907Z,64.70
2023-03-28T04:31:04.503Z,64.72
2023-03-28T04:33:45.413Z,64.65
2023-03-28T04:36:19.009Z,64.69
2023-03-28T04:38:58.416Z,64.53
2023-03-28T04:41:50.501Z,64.80
2023-03-28T04:44:34.337Z,64.75
2023-03-28T04:47:13.055Z,64.71
2023-03-28T04:49:45.316Z,64.63
2023-03-28T04:52:18.734Z,64.80
2023-03-28T04:54:52.149Z,64.73
2023-03-28T04:57:28.249Z,64.70
2023-03-28T05:00:17.249Z,64.70
2023-03-28T05:03:18.587Z,64.57
2023-03-28T05:06:00.702Z,64.63
2023-03-28T05:08:32.978Z,64.71
2023-03-28T05:11:05.748Z,64.96
2023-03-28T05:13:38.350Z,64.98
2023-03-28T05:16:16.899Z,64.91
2023-03-28T05:19:15.160Z,65.05
2023-03-28T05:21:57.117Z,65.26
2023-03-28T05:24:29.311Z,65.12
2023-03-28T05:27:01.678Z,65.27
2023-03-28T05:29:33.783Z,65.17
2023-03-28T05:32:06.807Z,65.22
2023-03-28T05:34:39.412Z,65.19
2023-03-28T05:37:11.865Z,65.24
2023-03-28T05:39:50.321Z,65.34
2023-03-28T05:42:24.322Z,65.33
2023-03-28T05:44:56.529Z,65.34
2023-03-28T05:47:29.034Z,65.28
2023-03-28T05:50:02.526Z,65.26
2023-03-28T05:52:35.340Z,65.22
2023-03-28T05:55:11.411Z,65.43
2023-03-28T05:57:44.321Z,65.45
2023-03-28T06:00:19.948Z,65.57
2023-03-28T06:02:54.940Z,65.65
2023-03-28T06:05:36.101Z,65.53
2023-03-28T06:08:09.650Z,65.44
2023-03-28T06:10:42.540Z,65.57
2023-03-28T06:13:35.098Z,65.51
2023-03-28T06:16:10.593Z,65.75
2023-03-28T06:18:42.911Z,65.69
2023-03-28T06:21:15.583Z,65.59
2023-03-28T06:23:51.822Z,65.44
2023-03-28T06:26:31.402Z,66.03
2023-03-28T06:29:03.971Z,65.64
2023-03-28T06:31:47.299Z,65.81
2023-03-28T06:34:19.772Z,65.81
2023-03-28T06:36:57.825Z,65.86
2023-03-28T06:39:32.701Z,65.84
2023-03-28T06:42:05.275Z,65.88
2023-03-28T06:44:44.488Z,65.73
2023-03-28T06:47:24.126Z,65.83
2023-03-28T06:49:56.492Z,65.78
2023-03-28T06:52:43.007Z,65.66
2023-03-28T06:55:16.086Z,65.71
2023-03-28T06:57:48.474Z,65.95
2023-03-28T07:00:31.946Z,65.75
2023-03-28T07:03:23.149Z,65.82
2023-03-28T07:05:55.643Z,65.96
2023-03-28T07:08:28.524Z,65.87
2023-03-28T07:11:01.129Z,66.08
2023-03-28T07:13:34.162Z,65.96
2023-03-28T07:16:15.662Z,65.87
2023-03-28T07:18:48.169Z,66.02
2023-03-28T07:21:27.142Z,65.95
2023-03-28T07:24:01.348Z,65.84
2023-03-28T07:26:40.532Z,65.85
2023-03-28T07:29:14.265Z,66.03
2023-03-28T07:31:46.708Z,66.17
2023-03-28T07:34:20.416Z,65.96
2023-03-28T07:36:53.381Z,66.02
2023-03-28T07:39:43.835Z,65.80
2023-03-28T07:42:19.829Z,65.91
2023-03-28T07:44:52.606Z,66.08
2023-03-28T07:47:25.181Z,65.78
2023-03-28T07:49:57.885Z,65.94
2023-03-28T07:52:31.460Z,65.97
2023-03-28T07:55:04.095Z,66.13
2023-03-28T07:57:40.028Z,65.99
2023-03-28T08:00:25.477Z,66.23
2023-03-28T08:03:19.073Z,66.12
2023-03-28T08:05:52.765Z,66.20
2023-03-28T08:08:26.617Z,66.06
2023-03-28T08:11:12.372Z,65.64
2023-03-28T08:13:45.035Z,65.37
2023-03-28T08:16:24.195Z,65.66
2023-03-28T08:19:10.055Z,65.72
2023-03-28T08:21:50.342Z,65.48
2023-03-28T08:24:34.800Z,65.80
2023-03-28T08:27:15.098Z,65.70
2023-03-28T08:29:49.288Z,65.42
2023-03-28T08:32:22.243Z,65.25
2023-03-28T08:34:55.663Z,65.45
2023-03-28T08:37:28.115Z,65.32
2023-03-28T08:40:01.818Z,65.40
2023-03-28T08:42:58.145Z,65.26
2023-03-28T08:45:47.882Z,65.48
2023-03-28T08:48:27.168Z,65.47
2023-03-28T08:51:04.585Z,65.33
2023-03-28T08:53:43.999Z,65.37
2023-03-28T08:56:17.631Z,65.06
2023-03-28T08:58:59.723Z,65.12
2023-03-28T09:01:34.192Z,64.71
2023-03-28T09:04:07.607Z,64.68
2023-03-28T09:06:45.654Z,64.21
2023-03-28T09:09:38.461Z,64.37
2023-03-28T09:12:41.050Z,64.55
2023-03-28T09:15:31.796Z,64.58
2023-03-28T09:18:22.621Z,64.33
2023-03-28T09:21:01.978Z,64.38
2023-03-28T09:23:55.373Z,64.20
2023-03-28T09:26:49.141Z,64.33
2023-03-28T09:29:27.997Z,63.74
2023-03-28T09:32:04.384Z,64.14
2023-03-28T09:34:46.573Z,64.10
2023-03-28T09:37:36.579Z,64.31
2023-03-28T09:40:20.835Z,64.22
2023-03-28T09:43:20.809Z,64.10
2023-03-28T09:46:19.628Z,64.31
2023-03-28T09:49:05.771Z,64.30
2023-03-28T09:51:41.062Z,63.77
2023-03-28T09:54:14.247Z,63.73
2023-03-28T09:56:47.591Z,63.60
2023-03-28T09:59:32.125Z,63.32
2023-03-28T10:02:30.712Z,63.41
2023-03-28T10:05:22.867Z,63.58
2023-03-28T10:08:07.635Z,63.57
2023-03-28T10:11:02.841Z,63.33
2023-03-28T10:13:41.750Z,62.85
2023-03-28T10:16:18.141Z,62.97
2023-03-28T10:19:25.116Z,62.86
2023-03-28T10:22:08.669Z,62.83
2023-03-28T10:24:46.968Z,62.93
2023-03-28T10:27:25.076Z,62.78
2023-03-28T10:29:59.920Z,62.94
2023-03-28T10:32:36.721Z,63.01
2023-03-28T10:35:31.539Z,62.88
2023-03-28T10:38:18.267Z,62.84
2023-03-28T10:41:20.671Z,62.97
2023-03-28T10:44:33.055Z,62.65
2023-03-28T10:47:16.245Z,62.54
2023-03-28T10:49:56.545Z,62.18
2023-03-28T10:52:38.162Z,62.27
2023-03-28T10:55:17.984Z,62.36
2023-03-28T10:58:17.802Z,62.20
2023-03-28T11:01:02.558Z,62.36
2023-03-28T11:03:58.431Z,62.32
2023-03-28T11:06:37.735Z,61.98
2023-03-28T11:09:21.245Z,61.78
2023-03-28T11:12:32.316Z,61.91
2023-03-28T11:15:17.538Z,61.91
2023-03-28T11:18:04.320Z,62.02
2023-03-28T11:20:46.175Z,61.88
2023-03-28T11:23:41.804Z,61.74
2023-03-28T11:26:42.013Z,61.42
2023-03-28T11:29:53.242Z,61.18
2023-03-28T11:32:31.990Z,60.98
2023-03-28T11:35:14.544Z,61.07
2023-03-28T11:37:57.241Z,61.30
2023-03-28T11:40:36.561Z,61.25
2023-03-28T11:43:16.959Z,61.15
2023-03-28T11:45:55.227Z,61.08
2023-03-28T11:48:31.805Z,61.28
2023-03-28T11:51:13.366Z,61.00
2023-03-28T11:53:56.427Z,60.80
2023-03-28T11:56:50.436Z,61.12
2023-03-28T11:59:49.065Z,60.54
2023-03-28T12:02:38.392Z,60.40
2023-03-28T12:05:22.827Z,60.49
2023-03-28T12:08:04.409Z,60.33
2023-03-28T12:10:38.485Z,60.42
2023-03-28T12:13:22.503Z,60.42
2023-03-28T12:16:10.190Z,60.49
2023-03-28T12:18:47.351Z,60.48
2023-03-28T12:21:43.337Z,60.27
2023-03-28T12:24:26.810Z,60.47
2023-03-28T12:27:17.846Z,60.19
2023-03-28T12:29:59.370Z,59.87
2023-03-28T12:32:44.683Z,59.83
2023-03-28T12:35:25.197Z,59.83
2023-03-28T12:38:24.618Z,59.85
2023-03-28T12:41:07.641Z,59.94
2023-03-28T12:43:47.119Z,60.12
2023-03-28T12:46:28.204Z,59.94
2023-03-28T12:49:06.009Z,59.91
2023-03-28T12:51:43.936Z,60.11
2023-03-28T12:54:30.763Z,60.18
2023-03-28T12:57:18.928Z,60.09
2023-03-28T13:00:20.678Z,59.96
2023-03-28T13:03:27.137Z,59.77
2023-03-28T13:06:06.911Z,59.47
2023-03-28T13:08:51.826Z,59.18
2023-03-28T13:11:31.468Z,59.33
2023-03-28T13:14:21.093Z,59.36
2023-03-28T13:16:59.774Z,59.40
2023-03-28T13:19:51.329Z,59.33
2023-03-28T13:22:32.791Z,59.65
2023-03-28T13:25:27.460Z,59.51
2023-03-28T13:28:01.802Z,59.38
2023-03-28T13:30:34.280Z,59.17
2023-03-28T13:33:26.509Z,59.21
2023-03-28T13:36:22.214Z,59.03
2023-03-28T13:39:07.269Z,59.03
2023-03-28T13:41:59.435Z,59.18
2023-03-28T13:44:46.038Z,59.32
2023-03-28T13:47:25.494Z,59.03
2023-03-28T13:50:04.045Z,59.06
2023-03-28T13:52:36.796Z,58.84
2023-03-28T13:55:20.768Z,58.92
2023-03-28T13:57:53.987Z,59.09
2023-03-28T14:00:29.277Z,58.91
2023-03-28T14:03:05.659Z,58.95
2023-03-28T14:05:46.414Z,59.00
2023-03-28T14:08:26.498Z,59.04
2023-03-28T14:11:00.905Z,58.76
2023-03-28T14:13:33.646Z,58.66
2023-03-28T14:16:11.171Z,58.70
2023-03-28T14:18:48.052Z,58.60
2023-03-28T14:21:24.050Z,58.68
2023-03-28T14:24:01.856Z,58.78
2023-03-28T14:26:38.060Z,58.75
2023-03-28T14:29:14.566Z,58.51
2023-03-28T14:31:48.834Z,58.58
2023-03-28T14:34:25.618Z,58.10
2023-03-28T14:37:03.554Z,58.32
2023-03-28T14:39:39.169Z,58.19
2023-03-28T14:42:17.188Z,57.99
2023-03-28T14:44:54.302Z,58.06
2023-03-28T14:47:32.278Z,57.73
2023-03-28T14:50:05.705Z,57.87
2023-03-28T14:52:41.124Z,57.91
2023-03-28T14:55:19.978Z,58.11
2023-03-28T14:57:54.518Z,57.91
2023-03-28T15:00:34.515Z,58.08
2023-03-28T15:03:13.343Z,57.74
2023-03-28T15:05:48.415Z,58.05
2023-03-28T15:08:28.404Z,57.86
2023-03-28T15:11:03.698Z,57.84
2023-03-28T15:13:37.231Z,58.15
2023-03-28T15:16:16.861Z,57.88
2023-03-28T15:18:56.875Z,58.14
2023-03-28T15:21:29.352Z,57.86
2023-03-28T15:24:04.239Z,57.37
2023-03-28T15:26:36.451Z,57.45
2023-03-28T15:29:10.297Z,57.67
2023-03-28T15:31:43.142Z,57.28
2023-03-28T15:34:23.491Z,57.26
2023-03-28T15:37:02.211Z,57.49
2023-03-28T15:39:37.165Z,57.54
2023-03-28T15:42:28.475Z,57.42
2023-03-28T15:45:25.089Z,57.22
2023-03-28T15:47:58.061Z,57.51
2023-03-28T15:50:36.502Z,56.76
2023-03-28T15:53:14.560Z,57.07
2023-03-28T15:55:48.791Z,57.02
2023-03-28T15:58:23.487Z,56.93
2023-03-28T16:00:56.491Z,57.27
2023-03-28T16:03:34.718Z,57.31
2023-03-28T16:06:32.225Z,57.12
2023-03-28T16:09:19.412Z,57.05
2023-03-28T16:11:56.488Z,57.21
2023-03-28T16:14:49.901Z,56.90
2023-03-28T16:17:47.402Z,56.95
2023-03-28T16:20:31.895Z,57.10
2023-03-28T16:23:09.612Z,57.02
2023-03-28T16:25:42.133Z,57.22
2023-03-28T16:28:19.363Z,57.08
2023-03-28T16:30:53.141Z,57.16
2023-03-28T16:33:26.012Z,57.13
2023-03-28T16:35:59.012Z,56.93
2023-03-28T16:38:31.595Z,56.98
2023-03-28T16:41:04.227Z,57.04
2023-03-28T16:43:37.893Z,56.96
2023-03-28T16:46:12.359Z,56.92
2023-03-28T16:48:45.260Z,57.00
2023-03-28T16:51:17.713Z,56.76
2023-03-28T16:53:50.130Z,57.00
2023-03-28T16:56:26.979Z,56.98
2023-03-28T16:58:59.290Z,56.98
2023-03-28T17:01:31.716Z,56.63
2023-03-28T17:04:04.638Z,56.93
2023-03-28T17:06:37.084Z,56.99
2023-03-28T17:09:09.979Z,57.01
2023-03-28T17:11:43.002Z,57.01
2023-03-28T17:14:15.797Z,57.06
2023-03-28T17:16:48.210Z,57.12
2023-03-28T17:19:23.227Z,56.82
2023-03-28T17:21:56.630Z,57.09
2023-03-28T17:24:30.089Z,56.91
2023-03-28T17:27:02.439Z,56.91
2023-03-28T17:29:34.810Z,56.84
2023-03-28T17:32:08.304Z,57.01
2023-03-28T17:34:40.984Z,56.71
2023-03-28T17:37:13.343Z,56.60
2023-03-28T17:39:46.706Z,56.82
2023-03-28T17:42:19.261Z,56.65
2023-03-28T17:44:54.651Z,56.45
2023-03-28T17:47:27.088Z,56.71
2023-03-28T17:50:00.627Z,56.52
2023-03-28T17:52:33.206Z,56.50
2023-03-28T17:55:06.972Z,56.68
2023-03-28T17:57:39.473Z,56.82
2023-03-28T18:00:14.117Z,56.48
2023-03-28T18:02:48.449Z,56.66
2023-03-28T18:05:30.867Z,56.29
2023-03-28T18:08:04.385Z,56.62
2023-03-28T18:10:39.456Z,56.46
2023-03-28T18:13:11.971Z,56.54
2023-03-28T18:15:44.571Z,56.48
2023-03-28T18:18:17.541Z,56.46
2023-03-28T18:20:51.074Z,56.27
2023-03-28T18:23:23.423Z,56.36
2023-03-28T18:25:55.727Z,56.40
2023-03-28T18:28:28.248Z,56.60
2023-03-28T18:31:09.984Z,56.34
2023-03-28T18:33:44.159Z,56.47
2023-03-28T18:36:16.735Z,56.26
2023-03-28T18:38:50.041Z,56.44
2023-03-28T18:41:22.433Z,56.42
2023-03-28T18:43:54.849Z,56.31
2023-03-28T18:46:29.941Z,56.34
2023-03-28T18:49:03.002Z,56.53
2023-03-28T18:51:36.700Z,56.30
2023-03-28T18:54:09.227Z,56.29
2023-03-28T18:56:41.577Z,56.24
2023-03-28T18:59:15.193Z,56.29
2023-03-28T19:01:51.604Z,56.35
2023-03-28T19:04:27.941Z,56.37
2023-03-28T19:07:00.409Z,56.27
2023-03-28T19:09:32.932Z,56.48
2023-03-28T19:12:05.297Z,56.44
2023-03-28T19:14:37.598Z,56.51
2023-03-28T19:17:09.891Z,56.48
2023-03-28T19:19:42.187Z,56.61
2023-03-28T19:22:14.450Z,56.42
2023-03-28T19:24:46.749Z,56.46
2023-03-28T19:27:19.142Z,56.55
2023-03-28T19:29:51.493Z,56.50
2023-03-28T19:32:24.696Z,56.41
2023-03-28T19:34:57.359Z,56.45
2023-03-28T19:37:29.691Z,56.34
2023-03-28T19:40:05.655Z,56.21
2023-03-28T19:42:38.304Z,56.65
2023-03-28T19:45:12.855Z,56.47
2023-03-28T19:47:45.238Z,56.45
2023-03-28T19:50:17.880Z,56.51
2023-03-28T19:52:50.367Z,56.47
2023-03-28T19:55:22.807Z,56.65
2023-03-28T19:57:57.068Z,56.33
2023-03-28T20:00:29.458Z,56.44
2023-03-28T20:03:03.051Z,56.58
2023-03-28T20:05:44.681Z,56.60
2023-03-28T20:08:18.943Z,56.61
2023-03-28T20:11:58.612Z,56.67
2023-03-28T20:14:34.462Z,56.86
2023-03-28T20:17:07.049Z,56.66
2023-03-28T20:19:40.446Z,56.66
2023-03-28T20:22:12.739Z,56.68
2023-03-28T20:24:45.026Z,56.50
2023-03-28T20:27:18.170Z,56.56
2023-03-28T20:29:50.533Z,56.73
2023-03-28T20:32:22.937Z,56.57
2023-03-28T20:34:55.317Z,56.63
2023-03-28T20:37:28.533Z,56.62
2023-03-28T20:40:10.341Z,56.66
2023-03-28T20:42:42.777Z,56.74
2023-03-28T20:45:22.137Z,56.60
2023-03-28T20:47:57.078Z,56.65
2023-03-28T20:50:34.120Z,56.64
2023-03-28T20:53:08.034Z,56.57
2023-03-28T20:55:40.534Z,56.59
2023-03-28T20:58:12.836Z,56.56
2023-03-28T21:00:46.592Z,56.78
2023-03-28T21:03:19.180Z,56.69
2023-03-28T21:05:53.253Z,56.67
2023-03-28T21:08:28.025Z,56.61
2023-03-28T21:11:00.578Z,56.62
2023-03-28T21:13:33.135Z,56.64
2023-03-28T21:16:05.917Z,56.54
2023-03-28T21:18:38.401Z,56.71
2023-03-28T21:21:12.726Z,56.74
2023-03-28T21:23:46.796Z,56.64
2023-03-28T21:26:21.247Z,56.95
2023-03-28T21:28:54.751Z,57.08
2023-03-28T21:31:29.290Z,56.83
2023-03-28T21:34:02.216Z,56.77
2023-03-28T21:36:34.837Z,56.69
2023-03-28T21:39:07.956Z,56.71
2023-03-28T21:41:40.296Z,56.82
2023-03-28T21:44:12.597Z,56.59
2023-03-28T21:46:44.934Z,56.84
2023-03-28T21:49:18.252Z,56.62
2023-03-28T21:51:50.620Z,56.73
2023-03-28T21:54:23.263Z,56.65
2023-03-28T21:56:55.859Z,56.83
2023-03-28T21:59:28.335Z,56.70
2023-03-28T22:02:01.062Z,56.62
2023-03-28T22:04:33.648Z,56.64
2023-03-28T22:07:06.338Z,56.77
2023-03-28T22:09:39.346Z,56.85
2023-03-28T22:12:11.738Z,56.62
2023-03-28T22:14:44.077Z,56.81
2023-03-28T22:17:16.389Z,56.80
2023-03-28T22:19:50.113Z,56.89
2023-03-28T22:22:28.250Z,56.98
2023-03-28T22:25:00.646Z,57.03
2023-03-28T22:27:34.977Z,56.97
2023-03-28T22:30:11.761Z,56.88
2023-03-28T22:32:44.291Z,56.94
2023-03-28T22:35:16.773Z,56.94
2023-03-28T22:37:49.066Z,56.93
2023-03-28T22:40:22.260Z,56.92
2023-03-28T22:42:55.049Z,56.97
2023-03-28T22:45:27.726Z,57.12
2023-03-28T22:48:03.284Z,57.03
2023-03-28T22:50:35.626Z,56.91
2023-03-28T22:53:08.212Z,56.99
2023-03-28T22:55:41.874Z,57.00
2023-03-28T22:58:15.130Z,57.05
2023-03-28T23:00:47.638Z,57.11
2023-03-28T23:03:20.045Z,57.07
2023-03-28T23:05:55.233Z,57.02
2023-03-28T23:08:28.356Z,57.05
2023-03-28T23:11:00.961Z,57.07
2023-03-28T23:13:33.519Z,57.06
2023-03-28T23:16:07.297Z,57.00
2023-03-28T23:18:39.674Z,57.34
2023-03-28T23:21:12.152Z,57.15
2023-03-28T23:23:46.511Z,57.03
2023-03-28T23:26:19.080Z,57.02
2023-03-28T23:28:51.705Z,57.25
2023-03-28T23:31:24.087Z,57.25
2023-03-28T23:33:56.462Z,57.25
2023-03-28T23:36:30.209Z,57.06
2023-03-28T23:39:02.813Z,57.17
2023-03-28T23:41:35.283Z,57.30
2023-03-28T23:44:07.930Z,57.35
2023-03-28T23:46:40.658Z,57.23
2023-03-28T23:49:12.906Z,57.19
2023-03-28T23:51:46.215Z,57.31
2023-03-28T23:54:18.794Z,57.25
2023-03-28T23:56:51.659Z,57.34
2023-03-28T23:59:25.287Z,57.47
